Time;durP1;ratioP1;P1;durP2;ratioP2;P2;SDS_P1;SDS_P2;PMS_P1;PMS_P2;Temp;Humidity;BMP_temperature;BMP_pressure;BME280_temperature;BME280_humidity;BME280_pressure;Samples;Min_cycle;Max_cycle;Signal;HPM_P1;HPM_P2
2022/10/07 00:01:08;;;;;;;30.42;23.50;;;;;;;;;;5074113;28;20165;-77
2022/10/07 00:03:34;;;;;;;27.58;20.77;;;;;;;;;;5075722;28;20122;-77
2022/10/07 00:06:04;;;;;;;57.42;36.22;;;;;;;;;;5075062;28;20343;-77
2022/10/07 00:08:29;;;;;;;;;;;;;;;;;;5078259;28;20427;-78
2022/10/07 00:10:55;;;;;;;57.25;37.13;;;;;;;;;;5084323;28;19912;-80
2022/10/07 00:13:22;;;;;;;55.78;37.60;;;;;;;;;;5084417;28;20035;-78
2022/10/07 00:15:47;;;;;;;46.47;30.48;;;;;;;;;;5075051;28;20031;-79
2022/10/07 00:18:13;;;;;;;44.42;27.35;;;;;;;;;;5075097;28;20024;-76
2022/10/07 00:20:39;;;;;;;34.10;23.08;;;;;;;;;;5085183;28;20063;-77
2022/10/07 00:23:05;;;;;;;22.85;17.83;;;;;;;;;;5085585;28;20050;-76
2022/10/07 00:25:30;;;;;;;23.65;17.83;;;;;;;;;;5085978;28;20178;-78
2022/10/07 00:27:56;;;;;;;30.80;21.42;;;;;;;;;;5084496;28;20024;-75
2022/10/07 00:30:22;;;;;;;26.90;19.83;;;;;;;;;;5085259;28;20042;-79
2022/10/07 00:32:47;;;;;;;28.52;19.00;;;;;;;;;;5072295;28;20028;-77
2022/10/07 00:35:12;;;;;;;40.78;31.10;;;;;;;;;;5078185;28;20071;-77
2022/10/07 00:37:41;;;;;;;39.95;32.08;;;;;;;;;;5084516;28;20170;-76
2022/10/07 00:40:08;;;;;;;30.88;25.38;;;;;;;;;;5074118;28;20024;-81
2022/10/07 00:42:34;;;;;;;30.77;25.67;;;;;;;;;;5085667;28;20113;-76
2022/10/07 00:44:59;;;;;;;44.95;30.42;;;;;;;;;;5083815;28;20324;-77
2022/10/07 00:47:33;;;;;;;42.05;31.02;;;;;;;;;;5082682;28;20084;-78
2022/10/07 00:50:03;;;;;;;46.53;31.30;;;;;;;;;;5071849;28;20060;-80
2022/10/07 00:52:30;;;;;;;42.22;30.52;;;;;;;;;;5081782;28;20036;-78
2022/10/07 00:54:56;;;;;;;36.00;26.00;;;;;;;;;;5074223;28;20077;-78
2022/10/07 00:57:23;;;;;;;26.25;20.67;;;;;;;;;;5073776;28;20032;-77
2022/10/07 00:59:48;;;;;;;29.02;20.75;;;;;;;;;;5084198;28;20486;-78
2022/10/07 01:02:14;;;;;;;36.40;27.08;;;;;;;;;;5082380;28;20244;-79
2022/10/07 01:04:40;;;;;;;39.47;29.80;;;;;;;;;;5074137;28;20360;-77
2022/10/07 01:07:05;;;;;;;36.03;26.00;;;;;;;;;;5084483;28;20024;-78
2022/10/07 01:09:31;;;;;;;34.88;25.02;;;;;;;;;;5081802;28;20024;-77
2022/10/07 01:12:04;;;;;;;40.97;29.33;;;;;;;;;;5075355;28;20401;-76
2022/10/07 01:14:29;;;;;;;25.15;18.95;;;;;;;;;;5078186;28;20033;-77
2022/10/07 01:17:18;;;;;;;21.08;16.05;;;;;;;;;;5081149;28;20520;-78
2022/10/07 01:19:49;;;;;;;24.58;19.48;;;;;;;;;;5068516;28;20135;-76
2022/10/07 01:22:33;;;;;;;24.20;19.90;;;;;;;;;;5075945;28;20036;-75
2022/10/07 01:25:11;;;;;;;27.52;21.40;;;;;;;;;;5081409;28;20024;-78
2022/10/07 01:27:38;;;;;;;26.77;21.98;;;;;;;;;;5084579;28;20107;-77
2022/10/07 01:30:05;;;;;;;24.75;19.23;;;;;;;;;;5083508;28;20486;-78
2022/10/07 01:32:33;;;;;;;19.75;14.32;;;;;;;;;;5083315;28;20032;-77
2022/10/07 01:35:00;;;;;;;15.25;12.35;;;;;;;;;;5074357;28;20492;-80
2022/10/07 01:37:29;;;;;;;15.07;11.52;;;;;;;;;;5071283;28;20020;-81
2022/10/07 01:39:57;;;;;;;17.70;11.87;;;;;;;;;;5084857;28;20024;-76
2022/10/07 01:42:25;;;;;;;17.65;12.75;;;;;;;;;;5083694;28;20042;-77
2022/10/07 01:44:52;;;;;;;17.42;11.90;;;;;;;;;;5084037;28;20056;-77
2022/10/07 01:47:18;;;;;;;16.10;12.63;;;;;;;;;;5084014;28;20051;-76
2022/10/07 01:49:43;;;;;;;21.45;14.88;;;;;;;;;;5076821;28;20032;-78
2022/10/07 01:52:29;;;;;;;18.70;14.77;;;;;;;;;;5079139;28;20028;-76
2022/10/07 01:55:13;;;;;;;18.88;13.93;;;;;;;;;;5084382;28;20031;-77
2022/10/07 01:57:52;;;;;;;14.05;11.10;;;;;;;;;;5082797;28;20147;-76
2022/10/07 02:00:18;;;;;;;17.67;14.85;;;;;;;;;;5081886;28;20028;-77
2022/10/07 02:02:57;;;;;;;25.85;19.98;;;;;;;;;;5074283;28;20451;-79
2022/10/07 02:05:23;;;;;;;;;;;;;;;;;;5083901;28;20027;-78
2022/10/07 02:08:02;;;;;;;21.37;15.10;;;;;;;;;;5083795;28;20305;-78
2022/10/07 02:10:53;;;;;;;37.40;20.57;;;;;;;;;;5082479;28;20261;-76
2022/10/07 02:13:37;;;;;;;27.67;17.45;;;;;;;;;;5080324;28;20066;-81
2022/10/07 02:16:26;;;;;;;24.27;18.30;;;;;;;;;;5080751;28;20102;-79
2022/10/07 02:18:52;;;;;;;21.10;16.65;;;;;;;;;;5048729;28;20580;-78
2022/10/07 02:21:22;;;;;;;24.10;19.38;;;;;;;;;;5082825;28;20061;-76
2022/10/07 02:23:48;;;;;;;23.50;18.50;;;;;;;;;;5076309;28;20379;-78
2022/10/07 02:26:15;;;;;;;24.85;17.85;;;;;;;;;;5078021;28;20518;-77
2022/10/07 02:28:42;;;;;;;23.48;16.90;;;;;;;;;;5082492;28;20020;-81
2022/10/07 02:31:09;;;;;;;16.67;14.68;;;;;;;;;;5081261;28;20031;-78
2022/10/07 02:33:36;;;;;;;16.00;11.77;;;;;;;;;;5081941;28;20523;-78
2022/10/07 02:36:03;;;;;;;14.65;12.23;;;;;;;;;;5082360;28;20044;-77
2022/10/07 02:38:29;;;;;;;13.75;11.43;;;;;;;;;;5077825;28;20030;-74
2022/10/07 02:41:10;;;;;;;13.00;10.55;;;;;;;;;;5076604;28;20032;-74
2022/10/07 02:43:39;;;;;;;13.63;10.52;;;;;;;;;;5082021;28;20035;-77
2022/10/07 02:46:10;;;;;;;12.05;9.63;;;;;;;;;;5081396;28;20121;-79
2022/10/07 02:48:38;;;;;;;11.43;9.13;;;;;;;;;;5082498;28;20032;-81
2022/10/07 02:51:07;;;;;;;11.32;10.13;;;;;;;;;;5072325;28;20525;-77
2022/10/07 02:53:34;;;;;;;13.67;10.67;;;;;;;;;;5082537;28;20035;-79
2022/10/07 02:56:01;;;;;;;14.73;10.63;;;;;;;;;;5080849;28;20248;-76
2022/10/07 02:58:26;;;;;;;14.13;9.90;;;;;;;;;;5079936;28;20147;-76
2022/10/07 03:00:56;;;;;;;14.77;9.98;;;;;;;;;;5070788;28;20098;-78
2022/10/07 03:03:23;;;;;;;28.70;17.88;;;;;;;;;;5079592;28;20039;-75
2022/10/07 03:05:49;;;;;;;34.05;21.90;;;;;;;;;;5082063;28;20035;-76
2022/10/07 03:08:14;;;;;;;39.03;25.50;;;;;;;;;;5080703;28;20028;-76
2022/10/07 03:10:40;;;;;;;47.97;28.17;;;;;;;;;;5071490;28;20047;-76
2022/10/07 03:13:05;;;;;;;50.53;26.50;;;;;;;;;;5082771;28;20347;-75
2022/10/07 03:15:31;;;;;;;31.33;18.23;;;;;;;;;;5082773;28;20039;-76
2022/10/07 03:17:57;;;;;;;23.85;15.23;;;;;;;;;;5082424;28;20717;-75
2022/10/07 03:20:22;;;;;;;27.13;15.90;;;;;;;;;;5082193;28;20032;-77
2022/10/07 03:22:47;;;;;;;55.35;31.48;;;;;;;;;;5079521;28;20031;-78
2022/10/07 03:25:13;;;;;;;29.70;20.10;;;;;;;;;;5072228;28;20509;-76
2022/10/07 03:27:40;;;;;;;18.52;13.93;;;;;;;;;;5081285;28;20028;-77
2022/10/07 03:30:06;;;;;;;17.67;13.40;;;;;;;;;;5082162;28;20027;-76
2022/10/07 03:32:31;;;;;;;18.30;13.70;;;;;;;;;;5081258;28;20036;-78
2022/10/07 03:34:57;;;;;;;15.68;12.55;;;;;;;;;;5081353;28;20025;-78
2022/10/07 03:37:22;;;;;;;19.35;14.95;;;;;;;;;;5082351;28;20089;-77
2022/10/07 03:39:48;;;;;;;48.08;39.78;;;;;;;;;;5071175;28;20414;-78
2022/10/07 03:42:14;;;;;;;31.98;28.00;;;;;;;;;;5071614;28;20340;-76
2022/10/07 03:44:39;;;;;;;26.08;20.63;;;;;;;;;;5080747;28;20035;-75
2022/10/07 03:47:04;;;;;;;18.20;14.10;;;;;;;;;;5080923;28;20078;-75
2022/10/07 03:49:30;;;;;;;13.32;10.95;;;;;;;;;;5081619;28;20028;-76
2022/10/07 03:51:55;;;;;;;10.73;8.50;;;;;;;;;;5081699;28;20066;-75
2022/10/07 03:54:21;;;;;;;7.95;7.15;;;;;;;;;;5081777;28;20035;-79
2022/10/07 03:56:46;;;;;;;8.20;7.40;;;;;;;;;;5073183;28;20028;-76
2022/10/07 03:59:11;;;;;;;8.55;7.70;;;;;;;;;;5076750;28;20384;-78
2022/10/07 04:01:38;;;;;;;20.05;14.38;;;;;;;;;;5080546;28;20028;-79
2022/10/07 04:04:04;;;;;;;16.67;11.52;;;;;;;;;;5072351;28;20027;-77
2022/10/07 04:06:30;;;;;;;29.33;14.82;;;;;;;;;;5063167;28;20050;-81
2022/10/07 04:08:55;;;;;;;28.17;16.13;;;;;;;;;;5065520;28;20016;-76
2022/10/07 04:11:21;;;;;;;26.90;17.17;;;;;;;;;;5065516;28;20038;-81
2022/10/07 04:13:47;;;;;;;27.95;19.27;;;;;;;;;;5069733;28;20114;-83
2022/10/07 04:16:12;;;;;;;33.15;20.85;;;;;;;;;;5069631;28;20194;-77
2022/10/07 04:18:40;;;;;;;23.10;18.00;;;;;;;;;;5069390;28;20417;-80
2022/10/07 04:21:06;;;;;;;19.85;15.07;;;;;;;;;;5081567;28;20027;-79
2022/10/07 04:23:31;;;;;;;17.27;13.50;;;;;;;;;;5080707;28;20036;-80
2022/10/07 04:25:56;;;;;;;17.30;13.32;;;;;;;;;;5081280;28;20107;-76
2022/10/07 04:28:24;;;;;;;23.20;16.83;;;;;;;;;;5081087;28;20081;-78
2022/10/07 04:30:50;;;;;;;20.27;16.05;;;;;;;;;;5079169;28;20036;-79
2022/10/07 04:33:16;;;;;;;23.35;14.90;;;;;;;;;;5067779;28;20065;-76
2022/10/07 04:35:41;;;;;;;22.25;17.10;;;;;;;;;;5081926;28;20052;-77
2022/10/07 04:38:08;;;;;;;13.38;10.90;;;;;;;;;;5080821;28;20031;-75
2022/10/07 04:40:37;;;;;;;9.60;8.70;;;;;;;;;;5081774;28;20078;-76
2022/10/07 04:45:47;;;;;;;40.90;27.90;;;;;;;;;;5080872;28;20059;-75
2022/10/07 04:48:16;;;;;;;32.95;26.38;;;;;;;;;;5068505;28;20340;-74
2022/10/07 04:50:42;;;;;;;31.50;24.70;;;;;;;;;;5066496;28;20050;-73
2022/10/07 04:53:08;;;;;;;34.20;25.98;;;;;;;;;;5066354;28;20032;-76
2022/10/07 04:55:36;;;;;;;31.85;25.05;;;;;;;;;;5065757;28;20090;-75
2022/10/07 04:58:02;;;;;;;32.30;23.35;;;;;;;;;;5070125;28;20027;-76
2022/10/07 05:00:27;;;;;;;38.67;28.92;;;;;;;;;;5085566;28;20418;-73
2022/10/07 05:02:53;;;;;;;29.85;22.65;;;;;;;;;;5073821;28;20027;-73
2022/10/07 05:05:18;;;;;;;26.88;21.80;;;;;;;;;;5069282;28;20020;-73
2022/10/07 05:07:48;;;;;;;22.58;19.77;;;;;;;;;;5070210;28;20024;-75
2022/10/07 05:10:13;;;;;;;20.85;18.63;;;;;;;;;;5083075;28;20020;-74
2022/10/07 05:12:40;;;;;;;25.88;20.27;;;;;;;;;;5083778;28;20039;-74
2022/10/07 05:15:05;;;;;;;29.80;21.40;;;;;;;;;;5084297;28;20028;-80
2022/10/07 05:17:31;;;;;;;31.17;24.42;;;;;;;;;;5082892;28;20354;-78
2022/10/07 05:19:56;;;;;;;29.63;24.55;;;;;;;;;;5074537;28;20085;-76
2022/10/07 05:22:21;;;;;;;29.67;25.05;;;;;;;;;;5070716;28;20036;-78
2022/10/07 05:24:47;;;;;;;30.20;24.90;;;;;;;;;;5071407;28;20486;-78
2022/10/07 05:27:12;;;;;;;29.23;25.27;;;;;;;;;;5072534;28;20032;-77
2022/10/07 05:29:38;;;;;;;31.23;23.08;;;;;;;;;;5076310;28;20120;-78
2022/10/07 05:32:03;;;;;;;38.28;27.73;;;;;;;;;;5076174;28;20447;-77
2022/10/07 05:34:29;;;;;;;41.75;32.97;;;;;;;;;;5070342;28;20362;-78
2022/10/07 05:36:54;;;;;;;40.47;31.40;;;;;;;;;;5071924;28;20034;-78
2022/10/07 05:39:19;;;;;;;41.42;32.58;;;;;;;;;;5070308;28;20043;-78
2022/10/07 05:41:45;;;;;;;36.20;29.85;;;;;;;;;;5070729;28;20030;-78
2022/10/07 05:44:10;;;;;;;41.53;32.10;;;;;;;;;;5072067;28;20073;-78
2022/10/07 05:46:35;;;;;;;38.20;31.10;;;;;;;;;;5071203;28;20423;-79
2022/10/07 05:49:02;;;;;;;39.08;31.10;;;;;;;;;;5070283;28;20028;-78
2022/10/07 05:51:27;;;;;;;67.53;44.53;;;;;;;;;;5071835;28;20118;-77
2022/10/07 05:53:53;;;;;;;125.30;66.35;;;;;;;;;;5071690;28;20431;-78
2022/10/07 05:56:22;;;;;;;432.05;212.80;;;;;;;;;;5068590;28;20395;-76
2022/10/07 05:58:48;;;;;;;110.85;58.15;;;;;;;;;;5070814;28;20035;-77
2022/10/07 06:01:15;;;;;;;44.30;27.75;;;;;;;;;;5070841;28;20032;-77
2022/10/07 06:03:41;;;;;;;38.90;22.48;;;;;;;;;;5069986;28;20115;-79
2022/10/07 06:06:07;;;;;;;34.03;23.50;;;;;;;;;;5068293;28;20051;-73
2022/10/07 06:08:34;;;;;;;28.20;20.58;;;;;;;;;;5069670;28;20024;-75
2022/10/07 06:13:47;;;;;;;43.97;35.80;;;;;;;;;;5069287;28;20026;-74
2022/10/07 06:16:12;;;;;;;31.50;24.17;;;;;;;;;;5069059;28;20032;-74
2022/10/07 06:18:38;;;;;;;17.83;15.80;;;;;;;;;;5069888;28;20393;-74
2022/10/07 06:21:04;;;;;;;22.77;20.10;;;;;;;;;;5069109;28;20111;-74
2022/10/07 06:23:29;;;;;;;22.40;20.02;;;;;;;;;;5068293;28;20028;-74
2022/10/07 06:25:56;;;;;;;23.88;20.75;;;;;;;;;;5075478;28;20032;-77
2022/10/07 06:28:22;;;;;;;19.30;17.30;;;;;;;;;;5082908;28;20086;-77
2022/10/07 06:30:47;;;;;;;16.85;14.85;;;;;;;;;;5081915;28;20027;-77
2022/10/07 06:33:12;;;;;;;15.43;11.73;;;;;;;;;;5083416;28;20031;-77
2022/10/07 06:35:38;;;;;;;11.60;10.48;;;;;;;;;;5084013;28;20024;-77
2022/10/07 06:38:06;;;;;;;10.85;9.65;;;;;;;;;;5071439;28;20024;-76
2022/10/07 06:40:32;;;;;;;12.70;10.10;;;;;;;;;;5077295;28;20037;-78
2022/10/07 06:42:57;;;;;;;12.93;11.15;;;;;;;;;;5081615;28;20401;-77
2022/10/07 06:45:22;;;;;;;14.55;12.43;;;;;;;;;;5081889;28;20048;-76
2022/10/07 06:47:48;;;;;;;13.90;12.48;;;;;;;;;;5083243;28;20070;-77
2022/10/07 06:50:14;;;;;;;13.70;10.57;;;;;;;;;;5081124;28;20028;-77
2022/10/07 06:52:39;;;;;;;17.00;13.60;;;;;;;;;;5079712;28;20040;-78
2022/10/07 06:55:06;;;;;;;27.23;24.30;;;;;;;;;;5077354;28;20053;-76
2022/10/07 06:57:32;;;;;;;22.25;19.85;;;;;;;;;;5065396;28;20094;-76
2022/10/07 07:00:00;;;;;;;19.90;16.50;;;;;;;;;;5069931;28;20051;-77
2022/10/07 07:02:29;;;;;;;36.35;32.65;;;;;;;;;;5069427;28;20346;-75
2022/10/07 07:04:55;;;;;;;35.72;32.00;;;;;;;;;;5067825;28;20039;-76
2022/10/07 07:07:22;;;;;;;16.40;14.52;;;;;;;;;;5069223;28;20109;-77
2022/10/07 07:09:48;;;;;;;30.23;25.08;;;;;;;;;;5067590;28;20038;-77
2022/10/07 07:12:13;;;;;;;24.52;21.45;;;;;;;;;;5069312;28;20032;-76
2022/10/07 07:14:39;;;;;;;35.90;30.63;;;;;;;;;;5069300;28;20092;-78
2022/10/07 07:17:04;;;;;;;23.63;20.88;;;;;;;;;;5069257;28;20059;-76
2022/10/07 07:19:29;;;;;;;26.63;22.17;;;;;;;;;;5066982;28;20754;-75
2022/10/07 07:21:55;;;;;;;23.25;20.20;;;;;;;;;;5070978;28;20039;-76
2022/10/07 07:24:20;;;;;;;22.30;19.98;;;;;;;;;;5080084;28;20063;-81
2022/10/07 07:26:46;;;;;;;24.83;22.23;;;;;;;;;;5070822;28;20024;-75
2022/10/07 07:29:12;;;;;;;72.15;56.80;;;;;;;;;;5068516;28;20020;-75
2022/10/07 07:31:37;;;;;;;27.00;19.30;;;;;;;;;;5068609;28;20054;-75
2022/10/07 07:34:06;;;;;;;18.25;16.42;;;;;;;;;;5067155;28;20028;-75
2022/10/07 07:36:34;;;;;;;48.83;35.35;;;;;;;;;;5066263;28;20032;-73
2022/10/07 07:39:09;;;;;;;72.53;53.05;;;;;;;;;;5067886;28;20024;-76
2022/10/07 07:41:36;;;;;;;48.33;37.00;;;;;;;;;;5067496;28;20057;-76
2022/10/07 07:44:03;;;;;;;14.95;11.65;;;;;;;;;;5068342;28;20020;-74
2022/10/07 07:46:31;;;;;;;10.30;9.30;;;;;;;;;;5067000;28;20054;-73
2022/10/07 07:48:57;;;;;;;12.95;9.65;;;;;;;;;;5068243;28;20111;-77
2022/10/07 07:51:23;;;;;;;11.52;10.18;;;;;;;;;;5067402;28;20114;-76
2022/10/07 07:53:49;;;;;;;12.73;10.82;;;;;;;;;;5068219;28;20028;-75
2022/10/07 07:56:14;;;;;;;19.42;15.07;;;;;;;;;;5067496;28;20042;-76
2022/10/07 07:58:41;;;;;;;18.15;15.25;;;;;;;;;;5069610;28;20429;-76
2022/10/07 08:01:07;;;;;;;14.77;11.13;;;;;;;;;;5068559;28;20469;-77
2022/10/07 08:03:36;;;;;;;13.02;11.52;;;;;;;;;;5067318;28;20059;-76
2022/10/07 08:06:02;;;;;;;13.35;11.90;;;;;;;;;;5071198;28;20024;-74
2022/10/07 08:08:28;;;;;;;19.13;16.27;;;;;;;;;;5068084;28;20899;-73
2022/10/07 08:10:54;;;;;;;17.00;13.70;;;;;;;;;;5075395;28;20036;-74
2022/10/07 08:13:19;;;;;;;15.52;13.55;;;;;;;;;;5068256;28;20047;-73
2022/10/07 08:15:45;;;;;;;15.05;12.30;;;;;;;;;;5081102;28;20032;-73
2022/10/07 08:18:10;;;;;;;13.20;10.02;;;;;;;;;;5081059;28;20028;-73
2022/10/07 08:20:36;;;;;;;16.65;10.07;;;;;;;;;;5081216;28;20036;-75
2022/10/07 08:23:02;;;;;;;9.05;8.10;;;;;;;;;;5079872;28;20039;-73
2022/10/07 08:25:27;;;;;;;15.10;11.65;;;;;;;;;;5080915;28;20028;-75
2022/10/07 08:27:53;;;;;;;13.20;11.52;;;;;;;;;;5081398;28;20027;-75
2022/10/07 08:30:18;;;;;;;12.85;9.38;;;;;;;;;;5081475;28;20451;-75
2022/10/07 08:32:44;;;;;;;13.07;11.57;;;;;;;;;;5086430;28;20126;-75
2022/10/07 08:35:10;;;;;;;12.05;10.85;;;;;;;;;;5084787;28;20024;-74
2022/10/07 08:37:36;;;;;;;12.65;9.52;;;;;;;;;;5084008;28;20027;-75
2022/10/07 08:40:02;;;;;;;13.40;10.45;;;;;;;;;;5084443;28;20024;-75
2022/10/07 08:42:32;;;;;;;12.65;9.93;;;;;;;;;;5084758;28;20351;-74
2022/10/07 08:44:58;;;;;;;16.45;12.90;;;;;;;;;;5083651;28;20110;-73
2022/10/07 08:47:37;;;;;;;15.88;11.70;;;;;;;;;;5048075;28;20048;-74
2022/10/07 08:50:20;;;;;;;25.40;20.17;;;;;;;;;;5085603;28;20028;-75
2022/10/07 08:52:49;;;;;;;41.50;32.53;;;;;;;;;;5085075;28;20055;-75
2022/10/07 08:55:22;;;;;;;24.95;17.33;;;;;;;;;;5084428;28;20032;-76
2022/10/07 08:57:54;;;;;;;32.30;27.02;;;;;;;;;;5084845;28;20108;-77
2022/10/07 09:00:21;;;;;;;15.20;9.73;;;;;;;;;;5084123;28;20029;-75
2022/10/07 09:03:06;;;;;;;13.48;10.43;;;;;;;;;;5084640;28;20508;-78
2022/10/07 09:05:34;;;;;;;19.23;14.32;;;;;;;;;;5084314;28;20089;-75
2022/10/07 09:08:05;;;;;;;35.83;24.08;;;;;;;;;;5065039;28;20031;-77
2022/10/07 09:10:39;;;;;;;19.30;15.27;;;;;;;;;;5067547;28;20042;-77
2022/10/07 09:13:09;;;;;;;39.72;27.55;;;;;;;;;;5070238;28;20016;-78
2022/10/07 09:15:49;;;;;;;11.60;7.30;;;;;;;;;;5069829;28;20064;-78
2022/10/07 09:18:25;;;;;;;9.88;8.57;;;;;;;;;;5070820;28;20454;-77
2022/10/07 09:20:52;;;;;;;10.60;9.38;;;;;;;;;;5067623;28;20028;-77
2022/10/07 09:23:19;;;;;;;9.38;7.80;;;;;;;;;;5068228;28;20024;-77
2022/10/07 09:25:44;;;;;;;7.45;5.32;;;;;;;;;;5079240;28;20434;-76
2022/10/07 09:28:15;;;;;;;10.35;8.70;;;;;;;;;;5084841;28;20048;-78
2022/10/07 09:30:41;;;;;;;10.95;7.88;;;;;;;;;;5083852;28;20044;-75
2022/10/07 09:33:18;;;;;;;7.68;5.90;;;;;;;;;;5084005;28;20361;-75
2022/10/07 09:35:52;;;;;;;5.88;5.20;;;;;;;;;;5083233;28;20019;-77
2022/10/07 09:38:27;;;;;;;7.28;4.80;;;;;;;;;;5084682;28;20131;-77
2022/10/07 09:41:15;;;;;;;8.13;5.43;;;;;;;;;;5083367;28;20409;-77
2022/10/07 09:43:53;;;;;;;7.68;5.10;;;;;;;;;;5082604;28;20149;-75
2022/10/07 09:46:28;;;;;;;7.70;6.35;;;;;;;;;;5082951;28;20438;-74
2022/10/07 09:48:53;;;;;;;6.30;5.13;;;;;;;;;;5085394;28;20035;-76
2022/10/07 09:51:25;;;;;;;9.52;6.15;;;;;;;;;;5084381;28;20340;-77
2022/10/07 09:53:57;;;;;;;6.72;6.03;;;;;;;;;;5084571;28;20118;-77
2022/10/07 09:56:35;;;;;;;13.02;5.00;;;;;;;;;;5083328;28;20438;-75
2022/10/07 09:59:15;;;;;;;7.80;6.05;;;;;;;;;;5084194;28;20024;-75
2022/10/07 10:01:41;;;;;;;12.13;5.60;;;;;;;;;;5084163;28;20051;-79
2022/10/07 10:04:14;;;;;;;5.70;5.07;;;;;;;;;;5083046;28;20440;-74
2022/10/07 10:06:44;;;;;;;9.63;5.03;;;;;;;;;;5084442;28;20028;-75
2022/10/07 10:09:10;;;;;;;6.45;4.75;;;;;;;;;;5083589;28;20028;-75
2022/10/07 10:11:35;;;;;;;6.43;5.55;;;;;;;;;;5082716;28;20024;-76
2022/10/07 10:14:21;;;;;;;6.72;4.38;;;;;;;;;;5084181;28;20032;-77
2022/10/07 10:16:46;;;;;;;5.30;4.25;;;;;;;;;;5082342;28;20031;-74
2022/10/07 10:19:21;;;;;;;4.20;3.28;;;;;;;;;;5083145;28;20038;-75
2022/10/07 10:21:50;;;;;;;8.40;5.30;;;;;;;;;;5083691;28;20728;-75
2022/10/07 10:24:15;;;;;;;;;;;;;;;;;;5083136;28;20024;-74
2022/10/07 10:26:54;;;;;;;9.27;8.37;;;;;;;;;;5083747;28;19912;-76
2022/10/07 10:29:30;;;;;;;5.30;4.53;;;;;;;;;;5083782;28;20047;-76
2022/10/07 10:32:14;;;;;;;4.63;4.20;;;;;;;;;;5083518;28;20031;-75
2022/10/07 10:34:41;;;;;;;6.50;5.32;;;;;;;;;;5081263;28;20127;-76
2022/10/07 10:37:07;;;;;;;5.55;5.05;;;;;;;;;;5081725;28;20031;-79
2022/10/07 10:39:48;;;;;;;3.50;3.08;;;;;;;;;;5083318;28;20115;-79
2022/10/07 10:42:18;;;;;;;3.60;3.28;;;;;;;;;;5083248;28;20039;-76
2022/10/07 10:44:53;;;;;;;6.00;2.90;;;;;;;;;;5081757;28;20440;-77
2022/10/07 10:47:21;;;;;;;3.10;2.80;;;;;;;;;;5082521;28;20056;-77
2022/10/07 10:49:53;;;;;;;4.30;2.88;;;;;;;;;;5083434;28;20032;-77
2022/10/07 10:52:48;;;;;;;4.22;3.83;;;;;;;;;;5082108;28;20105;-78
2022/10/07 10:55:32;;;;;;;5.50;2.83;;;;;;;;;;5072913;28;20101;-77
2022/10/07 10:58:09;;;;;;;4.97;3.38;;;;;;;;;;5083541;28;20027;-77
2022/10/07 11:00:53;;;;;;;5.60;2.80;;;;;;;;;;5081936;28;20028;-76
2022/10/07 11:03:18;;;;;;;4.95;3.70;;;;;;;;;;5083374;28;20031;-76
2022/10/07 11:05:45;;;;;;;3.53;3.10;;;;;;;;;;5082713;28;20028;-77
2022/10/07 11:08:16;;;;;;;4.57;3.03;;;;;;;;;;5082074;28;20033;-74
2022/10/07 11:10:55;;;;;;;5.60;3.13;;;;;;;;;;5080807;28;20358;-77
2022/10/07 11:13:20;;;;;;;3.15;2.50;;;;;;;;;;5068385;28;20039;-76
2022/10/07 11:15:48;;;;;;;6.03;4.47;;;;;;;;;;5068598;28;20036;-75
2022/10/07 11:18:25;;;;;;;7.90;3.58;;;;;;;;;;5077317;28;20020;-77
2022/10/07 11:20:50;;;;;;;5.90;2.60;;;;;;;;;;5081168;28;20058;-77
2022/10/07 11:23:16;;;;;;;4.57;3.25;;;;;;;;;;5081896;28;20028;-73
2022/10/07 11:25:45;;;;;;;4.30;2.58;;;;;;;;;;5082508;28;20035;-77
2022/10/07 11:28:22;;;;;;;2.97;2.65;;;;;;;;;;5082633;28;20054;-75
2022/10/07 11:31:00;;;;;;;3.13;2.70;;;;;;;;;;5081701;28;20351;-76
2022/10/07 11:33:31;;;;;;;5.80;3.00;;;;;;;;;;5079129;28;20031;-76
2022/10/07 11:36:01;;;;;;;4.93;2.53;;;;;;;;;;5072053;28;20340;-73
2022/10/07 11:38:34;;;;;;;3.53;2.50;;;;;;;;;;5065791;28;20092;-74
2022/10/07 11:41:22;;;;;;;5.10;3.25;;;;;;;;;;5067566;28;20016;-78
2022/10/07 11:43:52;;;;;;;5.75;3.47;;;;;;;;;;5077763;28;20035;-73
2022/10/07 11:46:23;;;;;;;4.25;3.58;;;;;;;;;;5075465;28;20117;-74
2022/10/07 11:48:52;;;;;;;7.28;5.22;;;;;;;;;;5076037;28;20028;-74
2022/10/07 11:51:22;;;;;;;5.40;4.90;;;;;;;;;;5070861;28;20028;-75
2022/10/07 11:53:47;;;;;;;4.20;2.92;;;;;;;;;;5080504;28;20024;-72
2022/10/07 11:56:19;;;;;;;4.65;2.83;;;;;;;;;;5078135;28;20020;-76
2022/10/07 11:58:45;;;;;;;3.30;2.40;;;;;;;;;;5066585;28;20290;-72
2022/10/07 12:01:28;;;;;;;5.60;2.95;;;;;;;;;;5067648;28;20043;-73
2022/10/07 12:03:58;;;;;;;3.58;2.58;;;;;;;;;;5067097;28;20063;-74
2022/10/07 12:06:24;;;;;;;6.13;2.70;;;;;;;;;;5076181;28;20028;-74
2022/10/07 12:08:50;;;;;;;2.95;2.17;;;;;;;;;;5068417;28;20016;-75
2022/10/07 12:11:22;;;;;;;3.47;2.55;;;;;;;;;;5073993;28;20062;-76
2022/10/07 12:13:49;;;;;;;4.03;3.22;;;;;;;;;;5080247;28;20427;-74
2022/10/07 12:16:26;;;;;;;4.72;2.95;;;;;;;;;;5076655;28;20513;-74
2022/10/07 12:19:18;;;;;;;3.30;3.00;;;;;;;;;;5080018;28;20394;-75
2022/10/07 12:21:59;;;;;;;4.22;2.90;;;;;;;;;;5076668;28;20043;-77
2022/10/07 12:24:25;;;;;;;17.63;15.77;;;;;;;;;;5079857;28;20027;-76
2022/10/07 12:26:51;;;;;;;6.63;3.50;;;;;;;;;;5075317;28;20059;-77
2022/10/07 12:29:21;;;;;;;14.35;11.88;;;;;;;;;;5069790;28;20056;-76
2022/10/07 12:31:47;;;;;;;8.32;7.35;;;;;;;;;;5070240;28;20047;-75
2022/10/07 12:34:20;;;;;;;10.73;7.55;;;;;;;;;;5079639;28;20092;-75
2022/10/07 12:36:45;;;;;;;6.85;4.63;;;;;;;;;;5078427;28;20028;-75
2022/10/07 12:39:11;;;;;;;4.15;3.78;;;;;;;;;;5080804;28;20023;-75
2022/10/07 12:41:41;;;;;;;3.97;3.15;;;;;;;;;;5080620;28;20391;-76
2022/10/07 12:44:06;;;;;;;8.30;5.43;;;;;;;;;;5080417;28;20051;-74
2022/10/07 12:46:41;;;;;;;7.93;7.13;;;;;;;;;;5079888;28;20063;-74
2022/10/07 12:49:15;;;;;;;4.55;4.15;;;;;;;;;;5068562;28;20103;-73
2022/10/07 12:51:42;;;;;;;6.43;3.70;;;;;;;;;;5078339;28;20023;-75
2022/10/07 12:54:23;;;;;;;4.35;2.42;;;;;;;;;;5078649;28;20032;-74
2022/10/07 12:56:49;;;;;;;3.20;2.20;;;;;;;;;;5079087;28;20089;-75
2022/10/07 12:59:46;;;;;;;2.75;2.30;;;;;;;;;;5079832;28;20024;-76
2022/10/07 13:02:30;;;;;;;2.38;2.17;;;;;;;;;;5068582;28;20115;-74
2022/10/07 13:05:14;;;;;;;2.88;2.45;;;;;;;;;;5079210;28;20154;-75
2022/10/07 13:07:48;;;;;;;2.22;2.05;;;;;;;;;;5077028;28;20354;-74
2022/10/07 13:10:32;;;;;;;6.22;2.50;;;;;;;;;;5078757;28;20085;-75
2022/10/07 13:13:05;;;;;;;3.35;2.10;;;;;;;;;;5079891;28;20028;-75
2022/10/07 13:15:43;;;;;;;3.72;3.33;;;;;;;;;;5078862;28;20035;-75
2022/10/07 13:18:14;;;;;;;6.28;3.08;;;;;;;;;;5080936;28;20439;-75
2022/10/07 13:20:39;;;;;;;2.50;2.30;;;;;;;;;;5080348;28;20542;-77
2022/10/07 13:23:31;;;;;;;2.95;2.50;;;;;;;;;;5082936;28;20066;-75
2022/10/07 13:25:58;;;;;;;3.45;3.13;;;;;;;;;;5074741;28;20040;-75
2022/10/07 13:28:24;;;;;;;3.72;2.53;;;;;;;;;;5081247;28;20032;-73
2022/10/07 13:30:50;;;;;;;6.63;3.10;;;;;;;;;;5081178;28;20027;-76
2022/10/07 13:33:16;;;;;;;2.72;2.00;;;;;;;;;;5080941;28;20539;-76
2022/10/07 13:35:41;;;;;;;3.63;2.55;;;;;;;;;;5081668;28;20103;-75
2022/10/07 13:38:26;;;;;;;4.65;3.13;;;;;;;;;;5081057;28;20363;-74
2022/10/07 13:41:02;;;;;;;5.38;3.08;;;;;;;;;;5077611;28;20024;-77
2022/10/07 13:43:28;;;;;;;3.35;2.63;;;;;;;;;;5078894;28;20057;-77
2022/10/07 13:45:54;;;;;;;3.78;3.40;;;;;;;;;;5068712;28;20058;-76
2022/10/07 13:48:22;;;;;;;3.85;2.95;;;;;;;;;;5079452;28;20024;-76
2022/10/07 13:50:49;;;;;;;3.90;3.05;;;;;;;;;;5082450;28;20038;-76
2022/10/07 13:53:25;;;;;;;4.18;3.78;;;;;;;;;;5083150;28;20024;-75
2022/10/07 13:56:02;;;;;;;5.13;4.07;;;;;;;;;;5075751;28;20028;-75
2022/10/07 13:58:31;;;;;;;3.78;3.30;;;;;;;;;;5078798;28;20032;-78
2022/10/07 14:00:57;;;;;;;4.38;3.20;;;;;;;;;;5077226;28;20020;-74
2022/10/07 14:03:23;;;;;;;4.50;4.03;;;;;;;;;;5065511;28;20097;-76
2022/10/07 14:05:50;;;;;;;6.00;4.18;;;;;;;;;;5066516;28;20443;-76
2022/10/07 14:08:25;;;;;;;13.80;7.07;;;;;;;;;;5079792;28;20039;-74
2022/10/07 14:10:54;;;;;;;11.35;8.80;;;;;;;;;;5078728;28;20694;-75
2022/10/07 14:13:19;;;;;;;;;;;;;;;;;;5081191;28;20063;-74
2022/10/07 14:15:46;;;;;;;12.70;11.30;;;;;;;;;;5081089;28;21037;-77
2022/10/07 14:18:13;;;;;;;6.13;5.13;;;;;;;;;;5072013;28;20036;-76
2022/10/07 14:20:40;;;;;;;5.05;4.55;;;;;;;;;;5080245;28;20089;-76
2022/10/07 14:23:05;;;;;;;6.70;6.00;;;;;;;;;;5082714;28;20063;-75
2022/10/07 14:25:34;;;;;;;3.55;3.25;;;;;;;;;;5082975;28;20512;-77
2022/10/07 14:28:03;;;;;;;4.70;4.30;;;;;;;;;;5072129;28;20458;-77
2022/10/07 14:35:17;;;;;;;5.80;4.28;;;;;;;;;;5076403;28;20032;-76
2022/10/07 14:36:13;;;;;;;6.90;4.47;;;;;;;;;;5081379;28;20039;-77
2022/10/07 14:38:40;;;;;;;5.15;4.18;;;;;;;;;;5081556;28;20089;-73
2022/10/07 14:41:05;;;;;;;5.38;3.85;;;;;;;;;;5080673;28;20028;-75
2022/10/07 14:43:31;;;;;;;4.00;3.10;;;;;;;;;;5067143;28;20034;-75
2022/10/07 14:45:56;;;;;;;7.00;3.42;;;;;;;;;;5066363;28;20467;-75
2022/10/07 14:48:22;;;;;;;5.15;4.13;;;;;;;;;;5069221;28;20052;-75